Time;durP1;ratioP1;P1;durP2;ratioP2;P2;SDS_P1;SDS_P2;PMS_P1;PMS_P2;Temp;Humidity;BMP_temperature;BMP_pressure;BME280_temperature;BME280_humidity;BME280_pressure;Samples;Min_cycle;Max_cycle;Signal;HPM_P1;HPM_P2
2021/10/21 00:01:40;;;;;;;2.33;1.40;;;14.80;98.00;;;;;;5036458;28;20820;-68
2021/10/21 00:04:07;;;;;;;1.93;1.40;;;14.80;98.00;;;;;;5053891;28;20550;-67
2021/10/21 00:06:35;;;;;;;1.20;1.10;;;14.80;98.00;;;;;;5053608;28;20524;-67
2021/10/21 00:09:04;;;;;;;1.83;1.63;;;14.70;98.00;;;;;;5054118;28;20469;-67
2021/10/21 00:11:33;;;;;;;2.17;1.53;;;14.70;98.00;;;;;;5054168;28;20496;-65
2021/10/21 00:14:00;;;;;;;1.87;1.57;;;14.70;98.00;;;;;;5054419;28;20456;-67
2021/10/21 00:16:27;;;;;;;2.37;1.43;;;14.70;98.00;;;;;;5054060;28;20907;-67
2021/10/21 00:18:54;;;;;;;2.03;1.40;;;14.70;98.00;;;;;;5053547;28;20478;-67
2021/10/21 00:21:22;;;;;;;2.70;1.63;;;14.70;98.00;;;;;;5053392;28;20453;-67
2021/10/21 00:23:50;;;;;;;1.67;1.63;;;14.70;98.00;;;;;;5053186;28;20550;-67
2021/10/21 00:26:17;;;;;;;1.40;1.23;;;14.70;98.00;;;;;;5053152;28;20538;-67
2021/10/21 00:28:44;;;;;;;1.80;1.37;;;14.80;98.00;;;;;;5052995;28;20841;-68
2021/10/21 00:31:11;;;;;;;2.23;1.50;;;14.70;98.00;;;;;;5052890;28;21136;-67
2021/10/21 00:33:38;;;;;;;2.27;1.80;;;14.70;98.00;;;;;;5035111;28;20456;-67
2021/10/21 00:36:06;;;;;;;2.93;1.20;;;14.70;98.00;;;;;;5052844;28;20568;-67
2021/10/21 00:38:33;;;;;;;1.63;1.47;;;14.70;98.00;;;;;;5035077;28;20490;-66
2021/10/21 00:41:01;;;;;;;2.17;1.50;;;14.70;98.00;;;;;;5053005;28;20522;-67
2021/10/21 00:43:35;;;;;;;1.83;1.30;;;14.70;98.00;;;;;;5052792;28;20544;-67
2021/10/21 00:46:05;;;;;;;1.17;1.07;;;14.60;98.00;;;;;;5052843;28;20455;-66
2021/10/21 00:48:32;;;;;;;1.63;1.33;;;14.60;98.00;;;;;;5035137;28;20455;-66
2021/10/21 00:50:59;;;;;;;1.33;1.30;;;14.70;98.00;;;;;;5052767;28;20886;-67
2021/10/21 00:53:27;;;;;;;2.47;1.63;;;14.70;98.00;;;;;;5052733;28;20814;-66
2021/10/21 00:55:55;;;;;;;1.50;1.30;;;14.70;98.00;;;;;;5052678;28;20482;-66
2021/10/21 00:58:24;;;;;;;1.20;1.20;;;14.70;98.00;;;;;;5052411;28;20467;-66
2021/10/21 01:00:52;;;;;;;1.40;1.40;;;14.70;98.00;;;;;;5052364;28;20541;-67
2021/10/21 01:03:21;;;;;;;1.30;1.10;;;14.80;98.00;;;;;;5052424;28;20463;-67
2021/10/21 01:05:48;;;;;;;1.23;1.20;;;14.70;98.00;;;;;;5052323;28;20453;-67
2021/10/21 01:08:15;;;;;;;1.20;1.20;;;14.70;98.00;;;;;;5052477;28;20448;-66
2021/10/21 01:10:44;;;;;;;1.10;1.10;;;14.70;98.00;;;;;;5034201;28;20487;-67
2021/10/21 01:13:11;;;;;;;1.43;1.30;;;14.80;98.00;;;;;;5052379;28;20453;-66
2021/10/21 01:15:40;;;;;;;1.67;1.30;;;14.80;98.00;;;;;;5052044;28;21020;-66
2021/10/21 01:18:07;;;;;;;1.40;1.10;;;14.80;98.00;;;;;;5052030;28;20451;-70
2021/10/21 01:20:35;;;;;;;1.33;1.10;;;15.00;98.00;;;;;;5051789;28;20464;-69
2021/10/21 01:23:02;;;;;;;1.40;1.30;;;15.00;98.00;;;;;;5052271;28;20494;-69
2021/10/21 01:25:29;;;;;;;1.10;1.10;;;15.10;98.00;;;;;;5052217;28;20456;-69
2021/10/21 01:27:56;;;;;;;1.33;1.27;;;15.10;98.00;;;;;;5051985;28;20454;-68
2021/10/21 01:30:25;;;;;;;1.10;1.00;;;15.00;98.00;;;;;;5052266;28;20456;-70
2021/10/21 01:32:53;;;;;;;1.63;1.13;;;15.10;98.00;;;;;;5051851;28;20492;-68
2021/10/21 01:35:21;;;;;;;1.20;1.10;;;15.10;98.00;;;;;;5052102;28;20498;-69
2021/10/21 01:37:49;;;;;;;3.20;1.60;;;15.20;98.00;;;;;;5051589;28;20488;-69
2021/10/21 01:40:20;;;;;;;2.43;1.30;;;15.20;98.00;;;;;;5051696;28;20883;-69
2021/10/21 01:42:47;;;;;;;1.57;1.33;;;15.10;98.00;;;;;;5051278;28;20494;-69
2021/10/21 01:45:18;;;;;;;1.30;1.20;;;15.10;98.00;;;;;;5051686;28;20492;-69
2021/10/21 01:47:46;;;;;;;1.20;1.20;;;15.00;98.00;;;;;;5051613;28;20452;-69
2021/10/21 01:50:15;;;;;;;1.10;1.10;;;15.10;98.00;;;;;;5051506;28;20461;-69
2021/10/21 01:52:42;;;;;;;1.10;1.00;;;15.10;98.00;;;;;;5051548;28;20465;-69
2021/10/21 01:55:11;;;;;;;1.20;1.20;;;15.10;98.00;;;;;;5051502;28;20559;-69
2021/10/21 01:57:39;;;;;;;2.20;1.43;;;15.00;98.00;;;;;;5051214;28;21008;-70
2021/10/21 02:00:08;;;;;;;1.40;1.40;;;15.00;98.00;;;;;;5051312;28;20898;-69
2021/10/21 02:02:35;;;;;;;1.10;1.07;;;15.00;98.00;;;;;;5051226;28;20491;-69
2021/10/21 02:05:03;;;;;;;1.10;1.10;;;15.00;98.00;;;;;;5051290;28;20489;-70
2021/10/21 02:07:30;;;;;;;2.07;1.40;;;15.10;98.00;;;;;;5051158;28;20558;-69
2021/10/21 02:09:57;;;;;;;1.20;1.20;;;15.10;98.00;;;;;;5051213;28;20509;-69
2021/10/21 02:12:25;;;;;;;1.27;1.23;;;15.20;98.00;;;;;;5051044;28;20503;-69
2021/10/21 02:14:52;;;;;;;1.40;1.30;;;15.10;98.00;;;;;;5051306;28;20451;-69
2021/10/21 02:17:22;;;;;;;2.07;1.30;;;15.10;98.00;;;;;;5050929;28;20896;-68
2021/10/21 02:19:49;;;;;;;1.30;1.30;;;15.10;98.00;;;;;;5051080;28;20969;-70
2021/10/21 02:22:16;;;;;;;1.30;1.20;;;15.10;98.00;;;;;;5033542;28;20460;-70
2021/10/21 02:24:45;;;;;;;2.13;1.57;;;15.10;98.00;;;;;;5051030;28;20456;-69
2021/10/21 02:27:12;;;;;;;1.40;1.30;;;15.10;98.00;;;;;;5050856;28;20461;-70
2021/10/21 02:29:41;;;;;;;1.57;1.47;;;15.10;98.00;;;;;;5050708;28;20496;-70
2021/10/21 02:32:08;;;;;;;1.30;1.30;;;15.10;98.00;;;;;;5032486;28;20460;-69
2021/10/21 02:34:36;;;;;;;1.20;1.20;;;15.10;98.00;;;;;;5050644;28;20459;-68
2021/10/21 02:37:03;;;;;;;2.70;1.50;;;15.10;98.00;;;;;;5050869;28;20487;-70
2021/10/21 02:39:30;;;;;;;1.73;1.50;;;15.10;98.00;;;;;;5050904;28;20785;-70
2021/10/21 02:41:57;;;;;;;2.30;1.30;;;15.10;98.00;;;;;;5051137;28;20521;-70
2021/10/21 02:44:24;;;;;;;1.73;1.30;;;15.10;98.00;;;;;;5050846;28;20460;-70
2021/10/21 02:46:52;;;;;;;1.10;1.07;;;15.20;98.00;;;;;;5050893;28;20513;-69
2021/10/21 02:49:19;;;;;;;2.80;1.30;;;15.20;98.00;;;;;;5033090;28;20545;-69
2021/10/21 02:51:47;;;;;;;1.10;1.00;;;15.20;98.00;;;;;;5050947;28;20824;-70
2021/10/21 02:54:14;;;;;;;1.53;1.37;;;15.20;98.00;;;;;;5033256;28;20512;-69
2021/10/21 02:56:41;;;;;;;1.50;1.40;;;15.20;98.00;;;;;;5050557;28;20489;-68
2021/10/21 02:59:08;;;;;;;1.20;1.13;;;15.30;98.00;;;;;;5050534;28;20461;-70
2021/10/21 03:01:36;;;;;;;1.73;1.30;;;15.30;98.00;;;;;;5050434;28;20513;-69
2021/10/21 03:04:04;;;;;;;1.30;1.23;;;15.30;98.00;;;;;;5049276;28;20521;-71
2021/10/21 03:06:31;;;;;;;1.60;1.10;;;15.40;98.00;;;;;;5050501;28;20518;-69
2021/10/21 03:08:58;;;;;;;1.17;1.10;;;15.40;98.00;;;;;;5050726;28;20534;-70
2021/10/21 03:11:25;;;;;;;1.37;1.30;;;15.30;98.00;;;;;;5050446;28;20465;-69
2021/10/21 03:13:52;;;;;;;1.57;1.27;;;15.30;98.00;;;;;;5050515;28;20488;-68
2021/10/21 03:16:19;;;;;;;1.10;1.00;;;15.30;98.00;;;;;;5032774;28;20509;-70
2021/10/21 03:18:46;;;;;;;1.67;1.53;;;15.30;98.00;;;;;;5050229;28;20456;-70
2021/10/21 03:21:15;;;;;;;1.40;1.20;;;15.30;98.00;;;;;;5050341;28;20455;-68
2021/10/21 03:23:42;;;;;;;1.53;1.40;;;15.40;98.00;;;;;;5050389;28;21025;-69
2021/10/21 03:26:10;;;;;;;1.87;1.17;;;15.40;98.00;;;;;;5050363;28;20456;-68
2021/10/21 03:28:39;;;;;;;1.33;1.27;;;15.40;98.00;;;;;;5050155;28;20483;-69
2021/10/21 03:31:06;;;;;;;1.20;1.20;;;15.40;98.00;;;;;;5049684;28;20456;-68
2021/10/21 03:33:33;;;;;;;1.30;1.13;;;15.40;98.00;;;;;;5050393;28;20532;-68
2021/10/21 03:36:00;;;;;;;1.50;1.10;;;15.40;98.00;;;;;;5050455;28;20521;-69
2021/10/21 03:38:29;;;;;;;1.50;1.40;;;15.40;98.00;;;;;;5050061;28;20483;-68
2021/10/21 03:40:56;;;;;;;1.27;1.20;;;15.50;98.00;;;;;;5050080;28;20463;-69
2021/10/21 03:43:23;;;;;;;1.40;1.27;;;15.50;98.00;;;;;;5032520;28;20451;-69
2021/10/21 03:45:50;;;;;;;1.57;1.20;;;15.50;98.00;;;;;;5053725;28;20891;-69
2021/10/21 03:48:17;;;;;;;1.60;1.40;;;15.50;98.00;;;;;;5053847;28;20823;-69
2021/10/21 03:50:44;;;;;;;1.20;1.10;;;15.50;98.00;;;;;;5053648;28;20487;-70
2021/10/21 03:53:13;;;;;;;1.20;1.10;;;15.50;98.00;;;;;;5053885;28;20867;-69
2021/10/21 03:55:43;;;;;;;1.40;1.20;;;15.50;98.00;;;;;;5053610;28;20465;-69
2021/10/21 03:58:10;;;;;;;1.10;1.00;;;15.50;98.00;;;;;;5053656;28;20901;-69
2021/10/21 04:00:41;;;;;;;1.20;1.10;;;15.60;98.00;;;;;;5053651;28;20880;-70
2021/10/21 04:03:08;;;;;;;1.20;1.13;;;15.50;98.00;;;;;;5053314;28;20447;-69
2021/10/21 04:05:35;;;;;;;1.77;1.30;;;15.50;98.00;;;;;;5053565;28;20490;-69
2021/10/21 04:08:02;;;;;;;1.60;1.07;;;15.40;98.00;;;;;;5053533;28;20460;-69
2021/10/21 04:10:29;;;;;;;2.30;1.30;;;15.40;98.00;;;;;;5053596;28;20518;-69
2021/10/21 04:12:58;;;;;;;2.30;1.63;;;15.50;98.00;;;;;;5053617;28;20551;-68
2021/10/21 04:15:25;;;;;;;1.57;1.30;;;15.50;98.00;;;;;;5053519;28;20460;-69
2021/10/21 04:17:54;;;;;;;1.20;1.20;;;15.50;98.00;;;;;;5053192;28;21032;-69
2021/10/21 04:20:22;;;;;;;1.20;1.20;;;15.50;98.00;;;;;;5053287;28;20514;-68
2021/10/21 04:22:49;;;;;;;1.20;1.10;;;15.50;98.00;;;;;;5053154;28;20463;-69
2021/10/21 04:25:17;;;;;;;1.60;1.30;;;15.40;98.00;;;;;;5053120;28;20490;-69
2021/10/21 04:27:46;;;;;;;1.30;1.10;;;15.40;98.00;;;;;;5053022;28;20451;-69
2021/10/21 04:30:15;;;;;;;1.20;1.10;;;15.40;98.00;;;;;;5053221;28;20508;-69
2021/10/21 04:32:43;;;;;;;1.20;1.10;;;15.40;98.00;;;;;;5052925;28;20452;-69
2021/10/21 04:35:10;;;;;;;1.20;1.10;;;15.40;98.00;;;;;;5052916;28;20490;-69
2021/10/21 04:37:37;;;;;;;1.60;1.10;;;15.40;98.00;;;;;;5052579;28;20537;-69
2021/10/21 04:40:05;;;;;;;1.20;1.10;;;15.40;98.00;;;;;;5052853;28;20630;-70
2021/10/21 04:42:32;;;;;;;1.30;1.10;;;15.40;98.00;;;;;;5052840;28;20483;-68
2021/10/21 04:45:00;;;;;;;1.20;1.10;;;15.40;98.00;;;;;;5052712;28;20466;-69
2021/10/21 04:47:28;;;;;;;1.20;1.10;;;15.40;98.00;;;;;;5052622;28;20449;-69
2021/10/21 04:50:03;;;;;;;1.20;1.10;;;15.30;98.00;;;;;;5052671;28;20459;-69
2021/10/21 04:52:30;;;;;;;1.20;1.03;;;15.30;98.00;;;;;;5052428;28;20466;-68
2021/10/21 04:54:57;;;;;;;1.30;1.10;;;15.20;98.00;;;;;;5052513;28;20461;-68
2021/10/21 04:57:24;;;;;;;1.20;1.10;;;15.20;98.00;;;;;;5051922;28;20486;-68
2021/10/21 04:59:54;;;;;;;1.67;1.37;;;15.10;98.00;;;;;;5052376;28;20512;-70
2021/10/21 05:02:21;;;;;;;1.20;1.10;;;15.10;98.00;;;;;;5052252;28;20998;-69
2021/10/21 05:04:49;;;;;;;1.20;0.90;;;15.10;98.00;;;;;;5052419;28;20501;-68
2021/10/21 05:07:16;;;;;;;1.20;1.00;;;15.00;98.00;;;;;;5052298;28;20453;-69
2021/10/21 05:09:43;;;;;;;1.20;1.00;;;15.00;98.00;;;;;;5052407;28;21029;-70
2021/10/21 05:12:10;;;;;;;2.33;1.50;;;14.90;98.00;;;;;;5052149;28;20499;-70
2021/10/21 05:14:37;;;;;;;1.20;1.10;;;14.90;98.00;;;;;;5052149;28;20463;-68
2021/10/21 05:17:04;;;;;;;1.20;1.10;;;14.80;98.00;;;;;;5052083;28;20514;-69
2021/10/21 05:19:31;;;;;;;1.37;1.27;;;14.80;98.00;;;;;;5052059;28;21011;-68
2021/10/21 05:22:00;;;;;;;1.20;1.10;;;14.80;98.00;;;;;;5052203;28;20456;-69
2021/10/21 05:24:27;;;;;;;1.20;1.10;;;14.80;98.00;;;;;;5034152;28;20466;-69
2021/10/21 05:26:55;;;;;;;1.20;1.17;;;14.80;98.00;;;;;;5051985;28;20873;-69
2021/10/21 05:29:22;;;;;;;1.20;1.00;;;14.80;98.00;;;;;;5034379;28;20490;-70
2021/10/21 05:31:50;;;;;;;1.20;1.03;;;14.70;98.00;;;;;;5052005;28;20459;-69
2021/10/21 05:34:17;;;;;;;1.20;1.10;;;14.50;98.00;;;;;;5052088;28;20452;-69
2021/10/21 05:36:44;;;;;;;1.20;1.00;;;14.50;98.00;;;;;;5051969;28;20463;-69
2021/10/21 05:39:12;;;;;;;1.20;1.00;;;14.40;98.00;;;;;;5051867;28;20848;-69
2021/10/21 05:41:39;;;;;;;1.20;1.00;;;14.30;98.00;;;;;;5051656;28;20493;-68
2021/10/21 05:44:06;;;;;;;1.20;1.10;;;14.30;98.00;;;;;;5051645;28;20454;-70
2021/10/21 05:46:33;;;;;;;1.20;1.00;;;14.30;98.00;;;;;;5051505;28;20491;-69
2021/10/21 05:49:00;;;;;;;1.20;1.00;;;14.30;98.00;;;;;;5051663;28;20494;-70
2021/10/21 05:51:27;;;;;;;1.20;1.10;;;14.40;98.00;;;;;;5051859;28;20458;-70
2021/10/21 05:53:54;;;;;;;1.20;1.00;;;14.30;98.00;;;;;;5051767;28;20488;-70
2021/10/21 05:56:24;;;;;;;1.30;1.10;;;14.30;98.00;;;;;;5051493;28;20461;-69
2021/10/21 05:58:51;;;;;;;1.20;1.10;;;14.20;98.00;;;;;;5051430;28;20529;-68
2021/10/21 06:01:19;;;;;;;1.20;1.00;;;14.20;98.00;;;;;;5052112;28;20489;-68
2021/10/21 06:03:46;;;;;;;1.20;1.10;;;14.20;98.00;;;;;;5051725;28;20874;-69
2021/10/21 06:06:13;;;;;;;1.20;1.00;;;14.20;98.00;;;;;;5051999;28;20468;-68
2021/10/21 06:08:41;;;;;;;1.20;1.10;;;14.20;98.00;;;;;;5050995;28;20618;-68
2021/10/21 06:11:08;;;;;;;1.20;1.00;;;14.20;98.00;;;;;;5051145;28;20461;-68
2021/10/21 06:13:37;;;;;;;1.20;1.00;;;14.20;98.00;;;;;;5051240;28;20454;-69
2021/10/21 06:16:05;;;;;;;1.20;1.10;;;14.20;98.00;;;;;;5051275;28;20508;-68
2021/10/21 06:18:32;;;;;;;3.00;1.40;;;14.10;98.00;;;;;;5051104;28;20487;-68
2021/10/21 06:21:01;;;;;;;1.30;1.10;;;14.10;98.00;;;;;;5051169;28;20480;-68
2021/10/21 06:23:29;;;;;;;1.20;1.00;;;14.10;98.00;;;;;;5051093;28;20464;-69
2021/10/21 06:26:03;;;;;;;1.20;1.10;;;14.10;98.00;;;;;;5050967;28;20454;-69
2021/10/21 06:28:30;;;;;;;1.20;1.00;;;14.10;98.00;;;;;;5018951;28;20466;-68
2021/10/21 06:30:59;;;;;;;1.40;1.00;;;14.10;98.00;;;;;;5051047;28;20816;-68
2021/10/21 06:33:26;;;;;;;1.20;1.00;;;14.10;98.00;;;;;;5050892;28;20482;-68
2021/10/21 06:35:53;;;;;;;1.20;1.00;;;14.10;98.00;;;;;;5051069;28;20482;-69
2021/10/21 06:38:20;;;;;;;1.20;1.20;;;14.10;98.00;;;;;;5050908;28;21097;-68
2021/10/21 06:40:47;;;;;;;1.20;1.00;;;14.10;98.00;;;;;;5050716;28;20458;-68
2021/10/21 06:43:14;;;;;;;1.20;1.00;;;14.10;98.00;;;;;;5050865;28;21157;-68
2021/10/21 06:45:41;;;;;;;2.10;1.20;;;14.10;98.00;;;;;;5050824;28;20492;-69
2021/10/21 06:48:10;;;;;;;1.20;1.07;;;14.10;98.00;;;;;;5051140;28;20457;-68
2021/10/21 06:50:37;;;;;;;3.90;1.30;;;14.00;98.00;;;;;;5050872;28;20488;-68
2021/10/21 06:53:05;;;;;;;1.20;1.00;;;14.00;98.00;;;;;;5050799;28;20494;-68
2021/10/21 06:55:32;;;;;;;1.50;1.10;;;14.00;98.00;;;;;;5049801;28;20497;-68
2021/10/21 06:57:59;;;;;;;1.20;1.00;;;13.90;98.00;;;;;;5033299;28;20520;-69
2021/10/21 07:00:27;;;;;;;1.20;1.00;;;13.90;98.00;;;;;;5050780;28;20526;-69
2021/10/21 07:02:55;;;;;;;1.20;1.10;;;13.90;98.00;;;;;;5050766;28;20830;-68
2021/10/21 07:05:26;;;;;;;1.20;1.00;;;13.90;98.00;;;;;;5050697;28;20546;-68
2021/10/21 07:07:53;;;;;;;1.20;1.00;;;13.90;98.00;;;;;;5050235;28;20459;-68
2021/10/21 07:10:21;;;;;;;1.20;1.00;;;13.90;98.00;;;;;;5050642;28;20455;-68
2021/10/21 07:12:49;;;;;;;1.20;1.00;;;13.90;98.00;;;;;;5050431;28;20486;-68
2021/10/21 07:15:16;;;;;;;1.43;1.00;;;14.00;98.00;;;;;;5045853;28;20463;-67
2021/10/21 07:17:43;;;;;;;1.20;1.00;;;14.00;98.00;;;;;;5029928;28;20532;-70
2021/10/21 07:20:13;;;;;;;1.20;1.07;;;14.10;98.00;;;;;;5046809;28;20451;-69
2021/10/21 07:22:42;;;;;;;1.20;1.00;;;14.20;98.00;;;;;;5040595;28;20458;-70
2021/10/21 07:25:10;;;;;;;1.20;1.00;;;14.20;98.00;;;;;;5042730;28;21072;-69
2021/10/21 07:27:37;;;;;;;2.60;1.10;;;14.30;98.00;;;;;;5034183;28;20499;-68
2021/10/21 07:30:04;;;;;;;1.30;1.20;;;14.20;98.00;;;;;;5048999;28;20461;-69
2021/10/21 07:32:31;;;;;;;1.20;1.10;;;14.30;98.00;;;;;;5040133;28;20490;-68
2021/10/21 07:34:58;;;;;;;1.90;1.20;;;14.30;98.00;;;;;;5015139;28;20831;-68
2021/10/21 07:37:25;;;;;;;1.20;1.00;;;14.40;98.00;;;;;;5042306;28;20554;-69
2021/10/21 07:39:54;;;;;;;1.20;1.00;;;14.40;98.00;;;;;;5041098;28;20524;-68
2021/10/21 07:42:35;;;;;;;1.20;1.00;;;14.50;98.00;;;;;;5041107;28;20559;-69
2021/10/21 07:45:02;;;;;;;1.20;1.00;;;14.50;98.00;;;;;;5041453;28;21056;-67
2021/10/21 07:47:33;;;;;;;1.20;1.00;;;14.50;98.00;;;;;;5035175;28;20481;-68
2021/10/21 07:50:00;;;;;;;1.20;1.00;;;14.50;98.00;;;;;;5025731;28;20489;-68
2021/10/21 07:52:27;;;;;;;1.33;1.27;;;14.50;98.00;;;;;;5034931;28;20454;-68
2021/10/21 07:54:55;;;;;;;1.20;1.00;;;14.50;98.00;;;;;;5029823;28;20488;-68
2021/10/21 07:57:22;;;;;;;2.90;2.17;;;14.50;98.00;;;;;;5041422;28;20474;-68
2021/10/21 07:59:50;;;;;;;1.20;1.00;;;14.50;98.00;;;;;;5040713;28;21006;-68
2021/10/21 08:02:19;;;;;;;1.20;1.00;;;14.60;98.00;;;;;;5033353;28;20458;-68
2021/10/21 08:04:46;;;;;;;1.93;1.10;;;14.60;98.00;;;;;;5041110;28;20975;-68
2021/10/21 08:07:13;;;;;;;1.20;1.00;;;14.70;98.00;;;;;;5033143;28;20549;-68
2021/10/21 08:09:40;;;;;;;1.40;1.20;;;14.60;98.00;;;;;;5032658;28;20459;-68
2021/10/21 08:12:10;;;;;;;1.20;1.00;;;14.70;98.00;;;;;;5033457;28;20492;-68
2021/10/21 08:14:37;;;;;;;1.20;1.10;;;14.60;98.00;;;;;;5035213;28;20454;-68
2021/10/21 08:17:04;;;;;;;1.20;0.90;;;14.70;98.00;;;;;;5039718;28;20460;-68
2021/10/21 08:19:31;;;;;;;1.20;1.10;;;14.70;98.00;;;;;;5032835;28;21838;-68
2021/10/21 08:21:59;;;;;;;1.20;1.00;;;14.70;98.00;;;;;;5041615;28;20479;-68
2021/10/21 08:24:29;;;;;;;1.20;1.00;;;14.80;97.60;;;;;;5047666;28;20889;-68
2021/10/21 08:26:56;;;;;;;1.20;1.00;;;15.00;98.00;;;;;;5038847;28;20827;-68
2021/10/21 08:29:25;;;;;;;1.20;1.00;;;15.10;97.70;;;;;;5041964;28;20567;-68
2021/10/21 08:31:55;;;;;;;1.20;1.00;;;15.00;96.50;;;;;;5047742;28;20474;-68
2021/10/21 08:34:22;;;;;;;1.20;1.10;;;14.90;96.70;;;;;;5032087;28;20475;-68
2021/10/21 08:36:50;;;;;;;1.20;1.00;;;14.90;96.70;;;;;;5031697;28;20880;-68
2021/10/21 08:39:17;;;;;;;1.20;1.00;;;14.90;97.70;;;;;;5033928;28;20577;-68
2021/10/21 08:41:45;;;;;;;1.20;1.13;;;14.90;97.60;;;;;;5047618;28;20877;-68
2021/10/21 08:44:12;;;;;;;1.20;1.00;;;14.90;98.00;;;;;;5032603;28;20451;-69
2021/10/21 08:46:41;;;;;;;1.20;1.00;;;14.90;98.00;;;;;;5040247;28;20459;-69
2021/10/21 08:49:10;;;;;;;1.20;1.00;;;14.80;98.00;;;;;;5040315;28;20479;-69
2021/10/21 08:51:38;;;;;;;1.20;1.00;;;15.00;96.80;;;;;;5039984;28;20459;-69
2021/10/21 08:54:06;;;;;;;1.20;1.00;;;14.90;96.70;;;;;;5031468;28;20530;-69
2021/10/21 08:56:33;;;;;;;1.20;1.10;;;14.90;97.50;;;;;;5033643;28;20492;-69
2021/10/21 08:59:01;;;;;;;1.20;1.00;;;14.80;96.40;;;;;;5039375;28;20493;-69
2021/10/21 09:01:36;;;;;;;1.20;1.00;;;14.80;96.50;;;;;;5022726;28;20453;-69
2021/10/21 09:04:23;;;;;;;1.20;1.00;;;14.80;98.00;;;;;;5041274;28;20589;-69
2021/10/21 09:09:31;;;;;;;1.20;1.00;;;14.70;98.00;;;;;;5000558;28;20463;-69
2021/10/21 09:12:04;;;;;;;2.50;1.50;;;14.70;98.00;;;;;;5037437;28;20455;-69
2021/10/21 09:14:34;;;;;;;1.20;1.00;;;14.60;98.00;;;;;;5041411;28;20461;-69
2021/10/21 09:17:03;;;;;;;1.20;1.00;;;14.50;98.00;;;;;;5039385;28;20503;-69
2021/10/21 09:19:32;;;;;;;1.20;0.97;;;14.50;97.50;;;;;;5046775;28;20489;-69
2021/10/21 09:22:00;;;;;;;1.20;1.00;;;14.60;98.00;;;;;;5047801;28;20493;-69
2021/10/21 09:24:29;;;;;;;1.30;1.10;;;14.80;98.00;;;;;;5040573;28;20512;-68
2021/10/21 09:27:05;;;;;;;1.20;1.00;;;14.90;97.60;;;;;;5039619;28;20684;-68
2021/10/21 09:29:33;;;;;;;1.20;1.00;;;14.80;98.00;;;;;;5047005;28;20462;-68
2021/10/21 09:32:07;;;;;;;1.20;0.90;;;14.70;98.00;;;;;;5047479;28;20679;-67
2021/10/21 09:34:51;;;;;;;1.20;1.00;;;14.60;98.00;;;;;;5030240;28;20485;-68
2021/10/21 09:37:21;;;;;;;1.20;1.00;;;14.50;98.00;;;;;;5023865;28;20469;-68
2021/10/21 09:39:50;;;;;;;1.20;1.00;;;14.40;98.00;;;;;;5031738;28;20525;-68
2021/10/21 09:42:18;;;;;;;1.47;1.30;;;14.50;98.00;;;;;;5038840;28;20461;-69
2021/10/21 09:44:46;;;;;;;1.20;1.10;;;14.50;98.00;;;;;;5039115;28;20495;-68
2021/10/21 09:47:18;;;;;;;1.67;1.10;;;14.60;98.00;;;;;;5030658;28;20459;-69
2021/10/21 09:49:53;;;;;;;1.20;1.00;;;14.60;98.00;;;;;;5043502;28;20570;-68
2021/10/21 09:52:22;;;;;;;1.20;1.00;;;14.50;98.00;;;;;;5041405;28;20457;-69
2021/10/21 09:54:51;;;;;;;1.20;1.00;;;14.50;98.00;;;;;;5041145;28;20438;-69
2021/10/21 09:57:18;;;;;;;1.30;1.20;;;14.50;98.00;;;;;;5044958;28;20487;-68
2021/10/21 10:00:03;;;;;;;1.20;1.00;;;14.50;98.00;;;;;;5033657;28;21011;-68
2021/10/21 10:02:32;;;;;;;1.20;0.90;;;14.40;98.00;;;;;;5037573;28;20555;-69
2021/10/21 10:05:04;;;;;;;1.20;1.00;;;14.30;98.00;;;;;;5033378;28;20828;-68
2021/10/21 10:07:35;;;;;;;1.20;1.00;;;14.20;98.00;;;;;;5043464;28;20527;-67
2021/10/21 10:10:04;;;;;;;1.20;1.00;;;14.10;98.00;;;;;;5032631;28;21025;-68
2021/10/21 10:12:32;;;;;;;1.20;1.00;;;14.40;98.00;;;;;;5044633;28;20479;-67
2021/10/21 10:14:59;;;;;;;1.20;1.00;;;14.90;98.00;;;;;;5040816;28;20491;-67
2021/10/21 10:17:29;;;;;;;1.20;1.00;;;15.20;98.00;;;;;;5036118;28;20511;-67
2021/10/21 10:19:57;;;;;;;1.20;1.00;;;15.50;98.00;;;;;;5033246;28;20502;-67
2021/10/21 10:22:30;;;;;;;1.20;1.10;;;15.50;94.20;;;;;;5035390;28;20882;-66
2021/10/21 10:24:57;;;;;;;1.20;1.07;;;15.40;93.10;;;;;;5045691;28;20471;-66
2021/10/21 10:27:29;;;;;;;1.20;1.00;;;15.20;92.40;;;;;;5031380;28;20464;-67
2021/10/21 10:29:58;;;;;;;1.20;1.00;;;15.10;93.10;;;;;;5038465;28;20499;-67
2021/10/21 10:32:40;;;;;;;1.20;1.00;;;15.00;92.90;;;;;;5036385;28;20498;-67
2021/10/21 10:35:09;;;;;;;1.20;1.00;;;14.70;94.10;;;;;;5039203;28;20953;-68
2021/10/21 10:37:57;;;;;;;1.20;1.10;;;14.70;94.70;;;;;;5008940;28;20553;-68
2021/10/21 10:40:43;;;;;;;1.20;1.10;;;14.70;93.40;;;;;;5031702;28;20487;-66
2021/10/21 10:43:16;;;;;;;1.20;1.00;;;14.50;94.90;;;;;;5037985;28;20466;-67
2021/10/21 10:45:54;;;;;;;1.20;1.10;;;14.70;92.50;;;;;;5038395;28;20473;-68
2021/10/21 10:48:54;;;;;;;1.20;1.00;;;14.70;91.50;;;;;;5044530;28;20886;-67
2021/10/21 10:51:23;;;;;;;1.20;1.00;;;14.60;92.20;;;;;;4934173;28;20457;-67
2021/10/21 10:53:53;;;;;;;1.20;1.00;;;14.90;93.30;;;;;;4950920;28;20497;-68
2021/10/21 10:56:53;;;;;;;1.20;1.00;;;15.10;89.50;;;;;;5007290;28;20520;-67
2021/10/21 10:59:22;;;;;;;1.20;1.00;;;15.00;91.00;;;;;;5039456;28;20493;-67
2021/10/21 11:01:51;;;;;;;1.20;1.00;;;15.10;91.50;;;;;;5045998;28;20460;-67
2021/10/21 11:04:56;;;;;;;2.07;1.17;;;15.00;88.80;;;;;;5047770;28;20519;-67
2021/10/21 11:07:25;;;;;;;1.20;1.10;;;15.10;88.20;;;;;;5025374;28;20455;-67
2021/10/21 11:09:55;;;;;;;1.20;1.03;;;15.30;90.10;;;;;;5042315;28;20461;-67
2021/10/21 11:12:23;;;;;;;1.20;1.00;;;15.90;90.50;;;;;;5050892;28;20483;-67
2021/10/21 11:14:55;;;;;;;1.20;1.03;;;16.50;90.10;;;;;;5033979;28;20460;-67
2021/10/21 11:17:42;;;;;;;1.20;1.00;;;16.90;87.00;;;;;;5026529;28;20943;-67
2021/10/21 11:20:39;;;;;;;1.20;1.00;;;17.10;87.50;;;;;;5038549;28;20585;-67
2021/10/21 11:23:07;;;;;;;1.20;1.10;;;17.20;86.00;;;;;;5041103;28;20485;-67
2021/10/21 11:25:37;;;;;;;1.20;1.00;;;17.20;85.20;;;;;;5043138;28;20531;-67
2021/10/21 11:28:05;;;;;;;1.47;1.23;;;16.80;87.10;;;;;;5042702;28;20480;-67
2021/10/21 11:30:35;;;;;;;1.20;1.20;;;16.70;86.60;;;;;;5043449;28;20491;-67
2021/10/21 11:33:03;;;;;;;1.20;1.10;;;16.70;86.60;;;;;;5041808;28;20607;-67
2021/10/21 11:35:33;;;;;;;1.30;1.10;;;16.80;87.90;;;;;;5048874;28;20458;-67
2021/10/21 11:38:01;;;;;;;1.20;1.10;;;16.60;88.50;;;;;;5041067;28;20917;-67
2021/10/21 11:40:35;;;;;;;1.53;1.20;;;16.40;87.10;;;;;;5041394;28;20496;-67
2021/10/21 11:43:06;;;;;;;1.20;1.00;;;16.40;87.90;;;;;;5033575;28;20476;-67
2021/10/21 11:45:34;;;;;;;1.23;1.13;;;16.20;87.00;;;;;;5032903;28;20972;-68
2021/10/21 11:48:03;;;;;;;1.20;1.00;;;15.80;88.50;;;;;;5042588;28;20949;-67
2021/10/21 11:50:39;;;;;;;1.20;1.00;;;15.80;89.20;;;;;;5033496;28;20501;-68
2021/10/21 11:53:07;;;;;;;1.30;1.20;;;15.70;88.30;;;;;;5041835;28;20458;-68
2021/10/21 11:55:34;;;;;;;1.20;1.10;;;15.40;88.20;;;;;;5033835;28;20497;-67
2021/10/21 11:58:11;;;;;;;1.20;1.10;;;15.30;88.70;;;;;;5049941;28;20458;-67
2021/10/21 12:00:39;;;;;;;1.20;1.00;;;15.20;89.00;;;;;;5042452;28;20525;-68
2021/10/21 12:03:06;;;;;;;1.20;1.00;;;15.20;88.70;;;;;;5049417;28;20456;-68
2021/10/21 12:05:37;;;;;;;1.20;1.10;;;15.10;88.40;;;;;;5047854;28;20941;-68
2021/10/21 12:08:05;;;;;;;1.20;1.10;;;15.10;90.30;;;;;;5033848;28;21056;-67
2021/10/21 12:10:34;;;;;;;1.20;1.00;;;15.10;89.60;;;;;;5050158;28;20459;-68
2021/10/21 12:13:03;;;;;;;1.20;1.00;;;15.00;89.50;;;;;;5049799;28;20482;-67
2021/10/21 12:15:34;;;;;;;1.20;1.00;;;15.10;90.10;;;;;;5048379;28;20472;-68
2021/10/21 12:18:05;;;;;;;1.97;1.67;;;15.00;90.00;;;;;;5041633;28;20459;-67
2021/10/21 12:20:38;;;;;;;1.20;1.00;;;14.90;90.40;;;;;;5039080;28;20513;-68
2021/10/21 12:23:17;;;;;;;1.20;1.10;;;14.80;90.10;;;;;;5033113;28;20451;-67
2021/10/21 12:25:47;;;;;;;1.20;1.00;;;14.80;91.00;;;;;;5032419;28;20480;-67
2021/10/21 12:28:15;;;;;;;1.20;1.10;;;14.80;89.80;;;;;;5032448;28;20529;-67
2021/10/21 12:30:43;;;;;;;4.70;1.20;;;14.80;90.50;;;;;;5036917;28;20583;-68
2021/10/21 12:33:12;;;;;;;1.20;1.07;;;14.80;91.40;;;;;;5044359;28;20462;-68
2021/10/21 12:35:55;;;;;;;1.30;1.17;;;14.70;90.50;;;;;;5032654;28;20513;-67
2021/10/21 12:38:22;;;;;;;1.20;1.10;;;14.60;90.80;;;;;;5037575;28;20488;-67
2021/10/21 12:40:58;;;;;;;1.20;1.00;;;14.60;90.60;;;;;;5048792;28;20891;-67
2021/10/21 12:43:27;;;;;;;1.20;1.03;;;14.60;92.10;;;;;;5042128;28;20493;-67
2021/10/21 12:45:57;;;;;;;1.20;1.00;;;14.50;92.20;;;;;;5047838;28;20460;-67
2021/10/21 12:48:25;;;;;;;1.30;1.20;;;14.60;91.60;;;;;;5041357;28;20949;-67
2021/10/21 12:50:55;;;;;;;1.40;1.20;;;14.50;91.80;;;;;;5038463;28;20473;-67
2021/10/21 12:53:22;;;;;;;1.20;1.00;;;14.60;92.40;;;;;;5039463;28;20544;-67
2021/10/21 12:55:50;;;;;;;1.20;1.00;;;14.70;92.40;;;;;;5048103;28;20875;-67
2021/10/21 12:58:21;;;;;;;1.20;1.00;;;14.90;91.60;;;;;;5031022;28;20462;-67
2021/10/21 13:00:49;;;;;;;1.20;1.00;;;15.00;91.00;;;;;;5019566;28;20489;-67